Madsen Beach, South Dakota
Current Conditions -  °F | °C
As of 10:54 PM on Sunday 21 Dec 2014 (Local Time) from KVVV Reporting Station
Haze Haze  
Wind Chill: 27°   Ceiling: 1500
Heat Index: 36°   Visibility: 4mi
Dew Point: 34°   Wind: 14mph
Humidity: 93%   Direction: 140°SE
Pressure: 29.54"   Gusts: NA
Location:  45.4152°N, 96.8664°W
Report Text: KVVV 220454Z AUTO 14012KT 4SM BR OVC015 02/01 A2954 RMK AO2
Loading
Personal Weather Stations






























Interactive Weather Map New forecast layout! Learn more

10-Day Weather Forecast

Advertisements
Track Severe Weather on mobile